UAL325 KSAN-KSFO
Flight info
| Callsign | UAL325 |
|---|---|
| Flight time | 1h 6m |
| Altitude | 40000 |
| Route | PADRZ2 IKAYE RIZIN SPLNT STOKD SERFR SERFR4 |
| Aircraft | B788/H-SDE1E2E3FGHIJ2J3J4J5M1RWXY/LB1D1 |
Departure
| Time | 2026-04-24 03:14 |
|---|---|
| Airport | San Diego International Airport (KSAN) |
Arrival
| Time | 2026-04-24 04:21 |
|---|---|
| Airport | San Francisco International Airport (KSFO) |
| Time | Latitude | Longitude | Altitude | Speed | Heading |
|---|---|---|---|---|---|
| 2026-04-24 02:19 | 32.73420 | -117.20317 | 28 ft | 0 kts | 263° |
| 2026-04-24 03:02 | 32.73420 | -117.20296 | 28 ft | 4 kts | 292° |
| 2026-04-24 03:03 | 32.73404 | -117.20279 | 26 ft | 4 kts | 355° |
| 2026-04-24 03:03 | 32.73381 | -117.20281 | 27 ft | 1 kts | 15° |
| 2026-04-24 03:03 | 32.73376 | -117.20282 | 27 ft | 0 kts | 15° |
| 2026-04-24 03:09 | 32.73391 | -117.20278 | 28 ft | 7 kts | 15° |
| 2026-04-24 03:09 | 32.73467 | -117.20256 | 29 ft | 15 kts | 13° |
| 2026-04-24 03:10 | 32.73545 | -117.20207 | 31 ft | 10 kts | 71° |
| 2026-04-24 03:10 | 32.73533 | -117.20128 | 31 ft | 11 kts | 104° |
| 2026-04-24 03:10 | 32.73509 | -117.20023 | 31 ft | 15 kts | 106° |
| 2026-04-24 03:10 | 32.73478 | -117.19894 | 32 ft | 17 kts | 105° |
| 2026-04-24 03:11 | 32.73442 | -117.19745 | 32 ft | 21 kts | 107° |
| 2026-04-24 03:11 | 32.73400 | -117.19568 | 33 ft | 23 kts | 104° |
| 2026-04-24 03:11 | 32.73353 | -117.19378 | 31 ft | 26 kts | 105° |
| 2026-04-24 03:11 | 32.73301 | -117.19158 | 30 ft | 29 kts | 107° |
| 2026-04-24 03:12 | 32.73243 | -117.18925 | 32 ft | 30 kts | 105° |
| 2026-04-24 03:12 | 32.73185 | -117.18682 | 38 ft | 31 kts | 106° |
| 2026-04-24 03:12 | 32.73121 | -117.18419 | 35 ft | 34 kts | 105° |
| 2026-04-24 03:12 | 32.73056 | -117.18150 | 32 ft | 28 kts | 106° |
| 2026-04-24 03:13 | 32.73005 | -117.17938 | 32 ft | 28 kts | 105° |
| 2026-04-24 03:13 | 32.72953 | -117.17716 | 31 ft | 26 kts | 96° |
| 2026-04-24 03:13 | 32.73011 | -117.17603 | 34 ft | 10 kts | 352° |
| 2026-04-24 03:13 | 32.73042 | -117.17662 | 33 ft | 9 kts | 284° |
| 2026-04-24 03:14 | 32.73046 | -117.17686 | 33 ft | 3 kts | 284° |
| 2026-04-24 03:14 | 32.73075 | -117.17804 | 32 ft | 49 kts | 286° |
| 2026-04-24 03:14 | 32.73264 | -117.18583 | 36 ft | 144 kts | 286° |
| 2026-04-24 03:14 | 32.73595 | -117.19925 | 646 ft | 172 kts | 287° |
| 2026-04-24 03:15 | 32.74055 | -117.21296 | 1818 ft | 185 kts | 300° |
| 2026-04-24 03:15 | 32.75028 | -117.22252 | 3052 ft | 177 kts | 332° |
| 2026-04-24 03:15 | 32.75844 | -117.23248 | 4179 ft | 171 kts | 299° |
| 2026-04-24 03:15 | 32.76397 | -117.24599 | 4923 ft | 197 kts | 291° |
| 2026-04-24 03:16 | 32.76904 | -117.26239 | 5673 ft | 225 kts | 295° |
| 2026-04-24 03:16 | 32.77747 | -117.27928 | 6579 ft | 250 kts | 303° |
| 2026-04-24 03:16 | 32.78772 | -117.29705 | 7530 ft | 268 kts | 303° |
| 2026-04-24 03:16 | 32.79819 | -117.31575 | 8017 ft | 285 kts | 303° |
| 2026-04-24 03:17 | 32.81026 | -117.33414 | 8005 ft | 277 kts | 306° |
| 2026-04-24 03:17 | 32.82168 | -117.35245 | 7988 ft | 276 kts | 305° |
| 2026-04-24 03:17 | 32.83319 | -117.37062 | 8007 ft | 274 kts | 306° |
| 2026-04-24 03:17 | 32.84482 | -117.38853 | 7983 ft | 274 kts | 306° |
| 2026-04-24 03:18 | 32.85659 | -117.40671 | 8555 ft | 274 kts | 306° |
| 2026-04-24 03:18 | 32.86800 | -117.42438 | 10152 ft | 271 kts | 305° |
| 2026-04-24 03:18 | 32.87991 | -117.44296 | 10927 ft | 296 kts | 305° |
| 2026-04-24 03:18 | 32.89297 | -117.46331 | 11558 ft | 323 kts | 305° |
| 2026-04-24 03:19 | 32.90700 | -117.48507 | 12486 ft | 336 kts | 305° |
| 2026-04-24 03:19 | 32.92108 | -117.50689 | 13775 ft | 339 kts | 305° |
| 2026-04-24 03:19 | 32.93551 | -117.52936 | 14870 ft | 344 kts | 305° |
| 2026-04-24 03:19 | 32.95013 | -117.55216 | 15981 ft | 348 kts | 304° |
| 2026-04-24 03:20 | 32.96485 | -117.57514 | 17046 ft | 352 kts | 304° |
| 2026-04-24 03:20 | 32.97986 | -117.59853 | 18124 ft | 357 kts | 304° |
| 2026-04-24 03:20 | 32.99497 | -117.62212 | 19057 ft | 360 kts | 304° |
| 2026-04-24 03:20 | 33.01024 | -117.64598 | 20024 ft | 363 kts | 304° |
| 2026-04-24 03:21 | 33.02565 | -117.67007 | 20895 ft | 368 kts | 303° |
| 2026-04-24 03:21 | 33.04104 | -117.69413 | 21737 ft | 372 kts | 303° |
| 2026-04-24 03:21 | 33.05679 | -117.71868 | 22578 ft | 376 kts | 305° |
| 2026-04-24 03:21 | 33.07530 | -117.74125 | 23368 ft | 385 kts | 315° |
| 2026-04-24 03:22 | 33.09579 | -117.76214 | 24036 ft | 390 kts | 315° |
| 2026-04-24 03:22 | 33.11650 | -117.78319 | 24710 ft | 393 kts | 315° |
| 2026-04-24 03:22 | 33.13740 | -117.80440 | 25342 ft | 396 kts | 315° |
| 2026-04-24 03:22 | 33.15846 | -117.82583 | 25964 ft | 399 kts | 314° |
| 2026-04-24 03:23 | 33.17964 | -117.84744 | 26589 ft | 403 kts | 314° |
| 2026-04-24 03:23 | 33.20051 | -117.86977 | 27184 ft | 403 kts | 310° |
| 2026-04-24 03:23 | 33.22042 | -117.89363 | 27742 ft | 407 kts | 310° |
| 2026-04-24 03:23 | 33.24060 | -117.91758 | 28326 ft | 410 kts | 310° |
| 2026-04-24 03:24 | 33.26063 | -117.94141 | 28881 ft | 414 kts | 310° |
| 2026-04-24 03:24 | 33.28107 | -117.96582 | 29447 ft | 417 kts | 310° |
| 2026-04-24 03:24 | 33.30168 | -117.99046 | 29990 ft | 420 kts | 310° |
| 2026-04-24 03:24 | 33.32244 | -118.01526 | 30459 ft | 423 kts | 310° |
| 2026-04-24 03:25 | 33.34329 | -118.04016 | 30946 ft | 425 kts | 310° |
| 2026-04-24 03:25 | 33.36423 | -118.06522 | 31413 ft | 427 kts | 310° |
| 2026-04-24 03:25 | 33.38527 | -118.09043 | 31906 ft | 429 kts | 310° |
| 2026-04-24 03:25 | 33.40646 | -118.11583 | 32280 ft | 432 kts | 310° |
| 2026-04-24 03:26 | 33.42776 | -118.14135 | 32725 ft | 434 kts | 309° |
| 2026-04-24 03:26 | 33.44911 | -118.16698 | 33126 ft | 436 kts | 309° |
| 2026-04-24 03:26 | 33.47062 | -118.19281 | 33539 ft | 438 kts | 309° |
| 2026-04-24 03:26 | 33.49191 | -118.21840 | 33898 ft | 441 kts | 309° |
| 2026-04-24 03:27 | 33.51356 | -118.24444 | 34246 ft | 443 kts | 309° |
| 2026-04-24 03:27 | 33.53535 | -118.27066 | 34573 ft | 444 kts | 309° |
| 2026-04-24 03:27 | 33.55709 | -118.29684 | 35046 ft | 442 kts | 309° |
| 2026-04-24 03:27 | 33.57880 | -118.32300 | 35430 ft | 443 kts | 309° |
| 2026-04-24 03:28 | 33.60046 | -118.34914 | 35873 ft | 441 kts | 308° |
| 2026-04-24 03:28 | 33.62203 | -118.37516 | 36348 ft | 438 kts | 308° |
| 2026-04-24 03:28 | 33.64343 | -118.40100 | 36875 ft | 435 kts | 308° |
| 2026-04-24 03:28 | 33.66468 | -118.42671 | 37323 ft | 433 kts | 308° |
| 2026-04-24 03:29 | 33.68588 | -118.45237 | 37769 ft | 431 kts | 307° |
| 2026-04-24 03:29 | 33.70696 | -118.47790 | 38216 ft | 429 kts | 307° |
| 2026-04-24 03:29 | 33.72762 | -118.50291 | 38645 ft | 428 kts | 307° |
| 2026-04-24 03:29 | 33.74853 | -118.52829 | 38949 ft | 428 kts | 307° |
| 2026-04-24 03:30 | 33.76951 | -118.55378 | 39175 ft | 429 kts | 307° |
| 2026-04-24 03:30 | 33.79051 | -118.57927 | 39448 ft | 430 kts | 307° |
| 2026-04-24 03:30 | 33.81158 | -118.60486 | 39683 ft | 431 kts | 307° |
| 2026-04-24 03:30 | 33.83273 | -118.63060 | 39848 ft | 434 kts | 307° |
| 2026-04-24 03:31 | 33.85399 | -118.65650 | 39998 ft | 437 kts | 307° |
| 2026-04-24 03:31 | 33.89706 | -118.70894 | 39975 ft | 440 kts | 307° |
| 2026-04-24 03:32 | 33.93967 | -118.76095 | 39991 ft | 439 kts | 307° |
| 2026-04-24 03:32 | 33.98251 | -118.81333 | 39986 ft | 439 kts | 307° |
| 2026-04-24 03:33 | 34.02543 | -118.86585 | 39976 ft | 440 kts | 307° |
| 2026-04-24 03:33 | 34.06840 | -118.91853 | 39988 ft | 439 kts | 307° |
| 2026-04-24 03:34 | 34.11115 | -118.97105 | 40006 ft | 439 kts | 307° |
| 2026-04-24 03:34 | 34.15087 | -119.02586 | 40001 ft | 432 kts | 297° |
| 2026-04-24 03:35 | 34.18270 | -119.08700 | 39977 ft | 430 kts | 296° |
| 2026-04-24 03:35 | 34.21429 | -119.14826 | 39978 ft | 430 kts | 296° |
| 2026-04-24 03:36 | 34.24532 | -119.20843 | 39967 ft | 404 kts | 296° |
| 2026-04-24 03:36 | 34.25992 | -119.23675 | 39952 ft | 388 kts | 296° |
| 2026-04-24 03:36 | 34.27384 | -119.26395 | 39943 ft | 373 kts | 295° |
| 2026-04-24 03:36 | 34.28724 | -119.29012 | 39948 ft | 360 kts | 295° |
| 2026-04-24 03:37 | 34.30006 | -119.31510 | 39944 ft | 348 kts | 295° |
| 2026-04-24 03:37 | 34.31262 | -119.33960 | 39947 ft | 337 kts | 295° |
| 2026-04-24 03:37 | 34.32476 | -119.36330 | 39945 ft | 327 kts | 295° |
| 2026-04-24 03:38 | 34.34805 | -119.40886 | 39950 ft | 311 kts | 294° |
| 2026-04-24 03:38 | 34.37124 | -119.45446 | 39979 ft | 327 kts | 295° |
| 2026-04-24 03:39 | 34.39587 | -119.50265 | 39971 ft | 347 kts | 295° |
| 2026-04-24 03:39 | 34.40918 | -119.52756 | 39988 ft | 360 kts | 301° |
| 2026-04-24 03:39 | 34.42569 | -119.55047 | 39988 ft | 375 kts | 308° |
| 2026-04-24 03:40 | 34.46316 | -119.59647 | 40020 ft | 392 kts | 307° |
| 2026-04-24 03:40 | 34.50233 | -119.64455 | 40027 ft | 408 kts | 307° |
| 2026-04-24 03:41 | 34.54298 | -119.69475 | 40034 ft | 425 kts | 307° |
| 2026-04-24 03:41 | 34.58525 | -119.74684 | 40017 ft | 440 kts | 308° |
| 2026-04-24 03:42 | 34.62809 | -119.79971 | 40010 ft | 443 kts | 308° |
| 2026-04-24 03:42 | 34.67121 | -119.85312 | 39995 ft | 443 kts | 307° |
| 2026-04-24 03:43 | 34.71433 | -119.90652 | 40020 ft | 443 kts | 308° |
| 2026-04-24 03:43 | 34.75740 | -119.96003 | 40013 ft | 443 kts | 308° |
| 2026-04-24 03:44 | 34.80050 | -120.01356 | 40025 ft | 442 kts | 308° |
| 2026-04-24 03:44 | 34.84316 | -120.06670 | 40023 ft | 436 kts | 308° |
| 2026-04-24 03:44 | 34.86403 | -120.09264 | 40003 ft | 423 kts | 308° |
| 2026-04-24 03:45 | 34.88425 | -120.11783 | 39991 ft | 409 kts | 307° |
| 2026-04-24 03:45 | 34.90375 | -120.14218 | 40035 ft | 396 kts | 307° |
| 2026-04-24 03:45 | 34.92277 | -120.16599 | 40006 ft | 388 kts | 307° |
| 2026-04-24 03:46 | 34.96057 | -120.21345 | 40012 ft | 397 kts | 307° |
| 2026-04-24 03:46 | 34.99950 | -120.26211 | 40020 ft | 403 kts | 307° |
| 2026-04-24 03:47 | 35.03828 | -120.31077 | 40026 ft | 402 kts | 307° |
| 2026-04-24 03:47 | 35.07729 | -120.35979 | 40029 ft | 403 kts | 307° |
| 2026-04-24 03:48 | 35.11824 | -120.40689 | 40021 ft | 405 kts | 310° |
| 2026-04-24 03:48 | 35.15980 | -120.45357 | 40031 ft | 406 kts | 310° |
| 2026-04-24 03:49 | 35.20149 | -120.50025 | 40032 ft | 407 kts | 310° |
| 2026-04-24 03:49 | 35.24307 | -120.54698 | 40053 ft | 405 kts | 310° |
| 2026-04-24 03:50 | 35.28458 | -120.59362 | 40031 ft | 409 kts | 311° |
| 2026-04-24 03:50 | 35.32646 | -120.64076 | 40027 ft | 408 kts | 310° |
| 2026-04-24 03:51 | 35.36814 | -120.68778 | 40032 ft | 407 kts | 310° |
| 2026-04-24 03:51 | 35.40987 | -120.73492 | 40049 ft | 408 kts | 311° |
| 2026-04-24 03:52 | 35.45140 | -120.78187 | 40042 ft | 409 kts | 310° |
| 2026-04-24 03:52 | 35.49413 | -120.82809 | 40072 ft | 413 kts | 317° |
| 2026-04-24 03:53 | 35.54011 | -120.87067 | 40061 ft | 414 kts | 316° |
| 2026-04-24 03:53 | 35.58603 | -120.91332 | 40060 ft | 415 kts | 316° |
| 2026-04-24 03:54 | 35.63202 | -120.95600 | 40059 ft | 414 kts | 316° |
| 2026-04-24 03:54 | 35.67764 | -120.99850 | 40050 ft | 414 kts | 316° |
| 2026-04-24 03:55 | 35.72361 | -121.04133 | 40052 ft | 414 kts | 316° |
| 2026-04-24 03:55 | 35.76965 | -121.08432 | 40056 ft | 416 kts | 316° |
| 2026-04-24 03:56 | 35.81583 | -121.12747 | 40055 ft | 415 kts | 316° |
| 2026-04-24 03:56 | 35.83868 | -121.14883 | 39613 ft | 414 kts | 316° |
| 2026-04-24 03:56 | 35.86167 | -121.17040 | 39079 ft | 415 kts | 316° |
| 2026-04-24 03:56 | 35.88461 | -121.19191 | 38598 ft | 415 kts | 316° |
| 2026-04-24 03:57 | 35.90760 | -121.21346 | 37977 ft | 415 kts | 316° |
| 2026-04-24 03:57 | 35.93027 | -121.23473 | 37353 ft | 416 kts | 316° |
| 2026-04-24 03:57 | 35.95331 | -121.25640 | 36702 ft | 417 kts | 316° |
| 2026-04-24 03:57 | 35.97645 | -121.27815 | 36026 ft | 419 kts | 317° |
| 2026-04-24 03:58 | 35.99966 | -121.29998 | 35389 ft | 420 kts | 317° |
| 2026-04-24 03:58 | 36.02290 | -121.32185 | 34790 ft | 420 kts | 317° |
| 2026-04-24 03:58 | 36.04606 | -121.34366 | 34211 ft | 418 kts | 317° |
| 2026-04-24 03:58 | 36.06930 | -121.36528 | 33618 ft | 418 kts | 321° |
| 2026-04-24 03:59 | 36.09388 | -121.38443 | 33059 ft | 417 kts | 322° |
| 2026-04-24 03:59 | 36.11836 | -121.40358 | 32509 ft | 416 kts | 322° |
| 2026-04-24 03:59 | 36.14247 | -121.42249 | 31960 ft | 417 kts | 322° |
| 2026-04-24 03:59 | 36.16716 | -121.44176 | 31420 ft | 421 kts | 323° |
| 2026-04-24 04:00 | 36.19199 | -121.46110 | 30870 ft | 424 kts | 323° |
| 2026-04-24 04:00 | 36.21702 | -121.48065 | 30307 ft | 426 kts | 323° |
| 2026-04-24 04:00 | 36.24209 | -121.50028 | 29706 ft | 426 kts | 323° |
| 2026-04-24 04:00 | 36.26714 | -121.51990 | 29151 ft | 428 kts | 323° |
| 2026-04-24 04:01 | 36.29251 | -121.53976 | 28596 ft | 434 kts | 324° |
| 2026-04-24 04:01 | 36.31811 | -121.55981 | 28026 ft | 436 kts | 324° |
| 2026-04-24 04:01 | 36.34382 | -121.57998 | 27458 ft | 440 kts | 324° |
| 2026-04-24 04:01 | 36.36931 | -121.60000 | 26890 ft | 437 kts | 324° |
| 2026-04-24 04:02 | 36.39475 | -121.61996 | 26337 ft | 429 kts | 324° |
| 2026-04-24 04:02 | 36.41977 | -121.63963 | 25937 ft | 424 kts | 324° |
| 2026-04-24 04:02 | 36.44485 | -121.65941 | 25403 ft | 429 kts | 324° |
| 2026-04-24 04:02 | 36.45338 | -121.66614 | 25208 ft | 429 kts | 324° |
| 2026-04-24 04:03 | 36.49492 | -121.69882 | 24311 ft | 419 kts | 324° |
| 2026-04-24 04:03 | 36.51932 | -121.71806 | 23732 ft | 412 kts | 324° |
| 2026-04-24 04:03 | 36.54302 | -121.73681 | 23153 ft | 405 kts | 324° |
| 2026-04-24 04:03 | 36.56652 | -121.75541 | 22621 ft | 396 kts | 324° |
| 2026-04-24 04:04 | 36.58950 | -121.77358 | 22092 ft | 388 kts | 324° |
| 2026-04-24 04:04 | 36.61203 | -121.79142 | 21610 ft | 381 kts | 325° |
| 2026-04-24 04:04 | 36.63421 | -121.80901 | 21094 ft | 374 kts | 325° |
| 2026-04-24 04:04 | 36.65597 | -121.82626 | 20587 ft | 368 kts | 325° |
| 2026-04-24 04:05 | 36.67743 | -121.84329 | 20111 ft | 363 kts | 325° |
| 2026-04-24 04:05 | 36.69854 | -121.86004 | 19634 ft | 358 kts | 326° |
| 2026-04-24 04:05 | 36.71943 | -121.87664 | 19193 ft | 353 kts | 326° |
| 2026-04-24 04:05 | 36.74007 | -121.89199 | 18735 ft | 350 kts | 334° |
| 2026-04-24 04:06 | 36.76339 | -121.90041 | 18250 ft | 349 kts | 345° |
| 2026-04-24 04:06 | 36.78697 | -121.90714 | 17772 ft | 346 kts | 346° |
| 2026-04-24 04:06 | 36.81044 | -121.91343 | 17306 ft | 343 kts | 347° |
| 2026-04-24 04:06 | 36.83371 | -121.91982 | 16839 ft | 341 kts | 346° |
| 2026-04-24 04:07 | 36.85672 | -121.92634 | 16368 ft | 338 kts | 347° |
| 2026-04-24 04:07 | 36.87955 | -121.93277 | 15922 ft | 335 kts | 347° |
| 2026-04-24 04:07 | 36.90221 | -121.93909 | 15482 ft | 332 kts | 347° |
| 2026-04-24 04:07 | 36.92466 | -121.94534 | 15041 ft | 330 kts | 347° |
| 2026-04-24 04:08 | 36.94668 | -121.95153 | 14612 ft | 327 kts | 346° |
| 2026-04-24 04:08 | 36.96817 | -121.96011 | 14178 ft | 324 kts | 342° |
| 2026-04-24 04:08 | 36.98978 | -121.96820 | 13748 ft | 323 kts | 345° |
| 2026-04-24 04:08 | 37.01133 | -121.97604 | 13299 ft | 320 kts | 344° |
| 2026-04-24 04:09 | 37.03255 | -121.98434 | 12875 ft | 318 kts | 343° |
| 2026-04-24 04:09 | 37.05353 | -121.99273 | 12456 ft | 316 kts | 343° |
| 2026-04-24 04:09 | 37.07449 | -122.00093 | 12033 ft | 313 kts | 343° |
| 2026-04-24 04:09 | 37.09507 | -122.00890 | 11625 ft | 306 kts | 343° |
| 2026-04-24 04:10 | 37.11518 | -122.01674 | 11214 ft | 299 kts | 343° |
| 2026-04-24 04:10 | 37.13457 | -122.02434 | 10837 ft | 293 kts | 343° |
| 2026-04-24 04:10 | 37.15382 | -122.03190 | 10450 ft | 287 kts | 344° |
| 2026-04-24 04:11 | 37.19112 | -122.04647 | 9678 ft | 276 kts | 344° |
| 2026-04-24 04:11 | 37.20919 | -122.05354 | 9321 ft | 269 kts | 344° |
| 2026-04-24 04:11 | 37.22685 | -122.06047 | 8971 ft | 263 kts | 343° |
| 2026-04-24 04:11 | 37.24414 | -122.06727 | 8625 ft | 258 kts | 343° |
| 2026-04-24 04:12 | 37.26107 | -122.07390 | 8286 ft | 252 kts | 343° |
| 2026-04-24 04:12 | 37.27768 | -122.08041 | 7966 ft | 248 kts | 342° |
| 2026-04-24 04:12 | 37.29397 | -122.08684 | 7641 ft | 244 kts | 342° |
| 2026-04-24 04:12 | 37.30981 | -122.09308 | 7329 ft | 240 kts | 342° |
| 2026-04-24 04:13 | 37.32565 | -122.09932 | 7018 ft | 237 kts | 342° |
| 2026-04-24 04:13 | 37.34129 | -122.10549 | 6711 ft | 235 kts | 342° |
| 2026-04-24 04:13 | 37.35667 | -122.11154 | 6430 ft | 229 kts | 342° |
| 2026-04-24 04:13 | 37.37183 | -122.11752 | 6121 ft | 228 kts | 342° |
| 2026-04-24 04:14 | 37.38719 | -122.12198 | 5957 ft | 227 kts | 346° |
| 2026-04-24 04:14 | 37.40250 | -122.12770 | 5641 ft | 228 kts | 342° |
| 2026-04-24 04:14 | 37.41772 | -122.13352 | 5350 ft | 228 kts | 343° |
| 2026-04-24 04:14 | 37.43281 | -122.13872 | 5059 ft | 228 kts | 344° |
| 2026-04-24 04:15 | 37.44791 | -122.14378 | 4762 ft | 221 kts | 344° |
| 2026-04-24 04:15 | 37.46263 | -122.14881 | 4455 ft | 216 kts | 344° |
| 2026-04-24 04:15 | 37.47694 | -122.15374 | 4181 ft | 211 kts | 343° |
| 2026-04-24 04:15 | 37.49090 | -122.15855 | 3909 ft | 206 kts | 343° |
| 2026-04-24 04:16 | 37.50457 | -122.16325 | 3648 ft | 202 kts | 343° |
| 2026-04-24 04:16 | 37.51801 | -122.16786 | 3418 ft | 198 kts | 343° |
| 2026-04-24 04:16 | 37.53098 | -122.17333 | 3149 ft | 195 kts | 332° |
| 2026-04-24 04:16 | 37.54231 | -122.18215 | 3140 ft | 192 kts | 325° |
| 2026-04-24 04:17 | 37.55188 | -122.19322 | 3086 ft | 189 kts | 306° |
| 2026-04-24 04:17 | 37.55726 | -122.20835 | 2957 ft | 194 kts | 288° |
| 2026-04-24 04:17 | 37.56089 | -122.22384 | 2700 ft | 174 kts | 285° |
| 2026-04-24 04:17 | 37.56452 | -122.23796 | 2240 ft | 164 kts | 289° |
| 2026-04-24 04:18 | 37.56974 | -122.24980 | 1934 ft | 149 kts | 303° |
| 2026-04-24 04:18 | 37.57496 | -122.26039 | 1656 ft | 138 kts | 297° |
| 2026-04-24 04:18 | 37.57933 | -122.27087 | 1340 ft | 134 kts | 294° |
| 2026-04-24 04:18 | 37.58291 | -122.28142 | 1171 ft | 127 kts | 291° |
| 2026-04-24 04:19 | 37.58659 | -122.29168 | 1103 ft | 132 kts | 292° |
| 2026-04-24 04:19 | 37.59072 | -122.30190 | 960 ft | 133 kts | 295° |
| 2026-04-24 04:19 | 37.59504 | -122.31204 | 784 ft | 128 kts | 295° |
| 2026-04-24 04:19 | 37.59909 | -122.32208 | 571 ft | 126 kts | 296° |
| 2026-04-24 04:20 | 37.60309 | -122.33170 | 477 ft | 126 kts | 295° |
| 2026-04-24 04:20 | 37.60715 | -122.34142 | 368 ft | 125 kts | 295° |
| 2026-04-24 04:20 | 37.61109 | -122.35112 | 217 ft | 123 kts | 295° |
| 2026-04-24 04:20 | 37.61505 | -122.36065 | 49 ft | 121 kts | 297° |
| 2026-04-24 04:21 | 37.61853 | -122.36898 | 26 ft | 79 kts | 298° |
| 2026-04-24 04:21 | 37.62022 | -122.37313 | 28 ft | 45 kts | 297° |
| 2026-04-24 04:21 | 37.62149 | -122.37611 | 32 ft | 11 kts | 298° |
| 2026-04-24 04:21 | 37.62186 | -122.37699 | 32 ft | 12 kts | 298° |
| 2026-04-24 04:22 | 37.62222 | -122.37810 | 31 ft | 15 kts | 285° |
| 2026-04-24 04:22 | 37.62231 | -122.37943 | 30 ft | 16 kts | 268° |
| 2026-04-24 04:22 | 37.62226 | -122.38088 | 30 ft | 16 kts | 268° |
| 2026-04-24 04:22 | 37.62217 | -122.38233 | 26 ft | 15 kts | 250° |
| 2026-04-24 04:23 | 37.62145 | -122.38314 | 32 ft | 13 kts | 203° |
| 2026-04-24 04:23 | 37.62089 | -122.38338 | 32 ft | 9 kts | 197° |
| 2026-04-24 04:23 | 37.62029 | -122.38333 | 29 ft | 9 kts | 144° |
| 2026-04-24 04:23 | 37.61989 | -122.38254 | 32 ft | 13 kts | 117° |
| 2026-04-24 04:24 | 37.61952 | -122.38193 | 32 ft | 9 kts | 149° |
| 2026-04-24 04:24 | 37.61890 | -122.38177 | 29 ft | 7 kts | 167° |
| 2026-04-24 04:24 | 37.61876 | -122.38172 | 29 ft | 1 kts | 166° |
| 2026-04-24 04:24 | 37.61875 | -122.38172 | 29 ft | 0 kts | 166° |